TAF KGTR
KGTR 270521Z 2706/2806 36003KT P6SM OVC250=
METAR KGTR
WC KGTR
WS KGTR
WV KGTR